Latest Weather Observations for Willis Island

IDQ60801

Issued at 1:32 pm EST Tuesday 26 September 2017 (issued every 30 minutes, with the page automatically refreshed every 10 minutes)

About weather observations | Map of weather stations | Latest weather observations for QLD | Other Formats
Station Details ID: 200283 Name: WILLIS ISLAND Lat: -16.29 Lon: 149.97 Height: 9.29 m
Data from the previous 72 hours. | See also: Recent months at Willis Island
Date/Time
EST
Temp
°C
App
Temp
°C
Dew
Point
°C
Rel
Hum
%
Delta-T
°C
Wind Press
QNH
hPa
Press
MSL
hPa
Rain since
9am
mm
Dir  Spd
km/h
Gust
km/h
Spd
kts
Gust
kts
26/01:30pm 27.9 28.3 22.4 72 3.7 ESE 24 28 13 15 1013.6 1013.5 0.0
26/01:00pm 28.5 29.0 22.6 70 4.0 ESE 24 28 13 15 1014.0 1013.9 0.0
26/12:30pm 28.3 28.7 22.5 71 3.9 ESE 24 26 13 14 1014.5 1014.4 0.0
26/12:00pm 28.5 28.9 22.4 69 4.1 ESE 24 26 13 14 1014.9 1014.8 0.0
26/11:30am 28.4 28.9 22.7 71 3.9 ESE 24 28 13 15 1015.2 1015.1 0.0
26/11:00am 28.4 29.4 22.8 71 3.8 ESE 22 26 12 14 1015.5 1015.4 0.0
26/10:30am 28.2 28.9 22.9 73 3.6 ESE 24 28 13 15 1015.8 1015.7 0.0
26/10:00am 27.5 28.0 22.6 74 3.3 ESE 24 28 13 15 1015.9 1015.8 0.0
26/09:30am 27.8 28.5 22.9 74 3.3 E 24 28 13 15 1015.9 1015.8 0.0
26/09:00am 27.1 27.7 22.8 77 2.9 ESE 24 28 13 15 1015.9 1015.8 0.0
26/08:30am 26.5 26.7 22.8 80 2.5 ESE 26 30 14 16 1015.7 1015.6 0.0
26/08:00am 26.0 26.2 22.7 82 2.2 E 26 32 14 17 1015.3 1015.2 0.0
26/07:30am 26.0 26.3 22.9 83 2.1 ESE 26 30 14 16 1015.0 1014.9 0.0
26/07:00am 25.4 25.3 22.9 86 1.7 ESE 28 30 15 16 1014.7 1014.6 0.0
26/06:30am 25.0 24.7 22.6 86 1.6 ESE 28 32 15 17 1014.3 1014.2 0.0
26/06:00am 24.8 24.6 22.7 88 1.4 ESE 28 32 15 17 1013.9 1013.8 0.0
26/05:30am 24.8 24.5 22.6 87 1.5 ESE 28 32 15 17 1013.7 1013.6 0.0
26/05:00am 24.9 24.6 22.5 86 1.6 E 28 32 15 17 1013.6 1013.5 0.0
26/04:30am 24.8 24.8 22.4 86 1.6 ESE 26 30 14 16 1013.2 1013.1 0.0
26/04:00am 25.0 24.8 22.8 87 1.5 E 28 30 15 16 1013.0 1012.9 0.0
26/03:30am 24.9 24.7 22.8 88 1.4 ESE 28 30 15 16 1012.8 1012.7 0.0
26/03:00am 24.8 25.0 22.7 88 1.4 ESE 26 32 14 17 1013.0 1012.9 0.0
26/02:30am 24.9 24.6 22.5 86 1.6 ESE 28 30 15 16 1013.2 1013.1 0.0
26/02:00am 24.9 24.9 22.4 86 1.7 E 26 32 14 17 1013.3 1013.2 0.0
26/01:30am 25.0 25.1 22.6 86 1.6 ESE 26 30 14 16 1013.6 1013.5 0.0
26/01:00am 24.9 24.9 22.4 86 1.7 ESE 26 30 14 16 1013.8 1013.7 0.0
26/12:30am 25.2 25.0 22.8 86 1.6 ESE 28 32 15 17 1014.2 1014.1 0.0
26/12:00am 25.1 25.3 22.7 86 1.6 ESE 26 30 14 16 1014.4 1014.3 0.0
 
Date/Time
EST
Temp
°C
App
Temp
°C
Dew
Point
°C
Rel
Hum
%
Delta-T
°C
Wind Press
QNH
hPa
Press
MSL
hPa
Rain since
9am
mm
Dir  Spd
km/h
Gust
km/h
Spd
kts
Gust
kts
25/11:30pm 25.1 24.5 22.6 86 1.7 ESE 30 33 16 18 1014.6 1014.5 0.0
25/11:00pm 25.1 24.3 22.4 85 1.8 E 30 33 16 18 1014.7 1014.6 0.0
25/10:30pm 25.2 25.0 22.7 86 1.7 E 28 32 15 17 1014.8 1014.7 0.0
25/10:00pm 25.0 24.7 22.5 86 1.7 E 28 32 15 17 1014.9 1014.8 0.0
25/09:30pm 25.0 24.6 22.3 85 1.8 E 28 32 15 17 1014.9 1014.8 0.0
25/09:00pm 24.9 24.4 22.2 85 1.8 ESE 28 32 15 17 1014.9 1014.8 0.0
25/08:30pm 25.0 24.5 22.2 84 1.9 ESE 28 32 15 17 1014.8 1014.7 0.0
25/08:00pm 25.0 24.9 22.2 84 1.9 E 26 30 14 16 1014.4 1014.3 0.0
25/07:30pm 24.9 24.6 21.9 83 2.0 ESE 26 30 14 16 1014.1 1014.0 0.0
25/07:00pm 25.2 24.7 22.2 83 2.0 ESE 28 32 15 17 1013.9 1013.8 0.0
25/06:30pm 24.9 23.8 21.7 82 2.1 ESE 30 33 16 18 1013.6 1013.5 0.0
25/06:00pm 24.9 23.7 21.6 82 2.2 ESE 30 33 16 18 1013.4 1013.3 0.0
25/05:30pm 25.1 23.9 21.5 80 2.4 ESE 30 33 16 18 1013.3 1013.2 0.0
25/05:00pm 25.3 24.0 21.4 79 2.6 ESE 30 35 16 19 1013.2 1013.1 0.0
25/04:30pm 26.2 25.4 21.7 76 3.0 ESE 28 33 15 18 1013.0 1012.9 0.0
25/04:00pm 26.1 25.3 21.6 76 3.0 ESE 28 33 15 18 1013.0 1012.9 0.0
25/03:30pm 26.6 25.3 21.3 72 3.5 ESE 30 32 16 17 1013.1 1013.0 0.0
25/03:00pm 26.5 25.1 21.1 72 3.6 ESE 30 35 16 19 1013.1 1013.0 0.0
25/02:30pm 27.1 26.0 21.1 69 4.0 SE 28 32 15 17 1013.2 1013.1 0.0
25/02:00pm 27.6 26.6 21.3 68 4.2 ESE 28 32 15 17 1013.4 1013.3 0.0
25/01:30pm 27.5 26.5 21.2 68 4.2 ESE 28 32 15 17 1013.7 1013.6 0.0
25/01:00pm 28.1 27.3 21.7 68 4.3 ESE 28 33 15 18 1013.9 1013.8 0.0
25/12:30pm 27.5 26.5 21.3 69 4.1 ESE 28 32 15 17 1014.3 1014.2 0.0
25/12:00pm 27.8 26.7 21.0 66 4.5 ESE 28 32 15 17 1014.8 1014.7 0.0
25/11:30am 27.5 26.5 21.3 69 4.1 ESE 28 32 15 17 1015.2 1015.1 0.0
25/11:00am 27.4 26.0 21.1 68 4.2 ESE 30 33 16 18 1015.6 1015.5 0.0
25/10:30am 27.5 26.1 21.2 68 4.2 ESE 30 33 16 18 1015.7 1015.6 0.0
25/10:00am 27.6 26.7 21.4 69 4.1 ESE 28 32 15 17 1015.9 1015.8 0.0
25/09:30am 26.9 25.7 20.8 69 4.0 ESE 28 32 15 17 1016.1 1016.0 0.0
25/09:00am 26.8 25.5 21.4 72 3.6 ESE 30 35 16 19 1016.2 1016.1 0.0
25/08:30am 25.9 24.4 20.9 74 3.3 ESE 30 35 16 19 1016.0 1015.9 0.0
25/08:00am 25.9 24.7 20.9 74 3.3 ESE 28 33 15 18 1015.9 1015.8 0.0
25/07:30am 25.3 24.0 20.6 75 3.1 ESE 28 32 15 17 1015.6 1015.5 0.0
25/07:00am 25.0 23.3 20.6 76 2.9 ESE 30 33 16 18 1015.2 1015.1 0.0
25/06:30am 24.4 23.1 20.7 80 2.4 ESE 28 32 15 17 1015.1 1015.0 0.0
25/06:00am 24.3 23.1 20.9 81 2.2 E 28 32 15 17 1014.7 1014.6 0.0
25/05:30am 24.1 22.9 20.9 82 2.1 ESE 28 33 15 18 1014.4 1014.3 0.0
25/05:00am 24.4 23.0 21.2 82 2.1 E 30 35 16 19 1014.1 1014.0 0.0
25/04:30am 24.3 22.7 20.8 81 2.3 ESE 30 33 16 18 1013.9 1013.8 0.0
25/04:00am 24.2 23.4 20.8 81 2.2 ESE 26 30 14 16 1013.7 1013.6 0.0
25/03:30am 24.2 23.3 20.7 81 2.3 ESE 26 30 14 16 1013.6 1013.5 0.0
25/03:00am 24.1 23.3 20.9 82 2.1 ESE 26 30 14 16 1013.7 1013.6 0.0
25/02:30am 24.2 23.0 20.8 81 2.2 ESE 28 32 15 17 1013.8 1013.7 0.0
25/02:00am 24.3 23.1 20.9 81 2.2 ESE 28 32 15 17 1014.1 1014.0 0.0
25/01:30am 24.5 23.4 21.0 81 2.3 E 28 32 15 17 1014.3 1014.2 0.0
25/01:00am 24.3 23.1 20.8 81 2.3 ESE 28 32 15 17 1014.3 1014.2 0.0
25/12:30am 24.3 23.1 20.9 81 2.2 ESE 28 32 15 17 1014.3 1014.2 0.0
25/12:00am 24.3 22.8 20.9 81 2.2 ESE 30 33 16 18 1014.5 1014.4 0.0
 
Date/Time
EST
Temp
°C
App
Temp
°C
Dew
Point
°C
Rel
Hum
%
Delta-T
°C
Wind Press
QNH
hPa
Press
MSL
hPa
Rain since
9am
mm
Dir  Spd
km/h
Gust
km/h
Spd
kts
Gust
kts
24/11:30pm 24.3 23.1 20.9 81 2.2 ESE 28 32 15 17 1014.6 1014.5 0.0
24/11:00pm 24.1 22.8 20.6 81 2.3 ESE 28 32 15 17 1014.7 1014.6 0.0
24/10:30pm 24.2 22.9 20.7 81 2.3 ESE 28 33 15 18 1014.8 1014.7 0.0
24/10:00pm 24.3 22.6 20.6 80 2.4 E 30 35 16 19 1014.9 1014.8 0.0
24/09:30pm 24.2 22.6 20.7 81 2.3 ESE 30 33 16 18 1014.8 1014.7 0.0
24/09:00pm 24.2 22.8 20.4 79 2.5 ESE 28 33 15 18 1014.9 1014.8 0.0
24/08:30pm 24.4 23.0 20.4 78 2.6 ESE 28 32 15 17 1014.7 1014.6 0.0
24/08:00pm 24.2 22.6 20.0 77 2.7 ESE 28 30 15 16 1014.4 1014.3 0.0
24/07:30pm 24.4 22.5 20.1 77 2.8 ESE 30 33 16 18 1014.0 1013.9 0.0
24/07:00pm 24.2 22.6 20.0 77 2.7 ESE 28 32 15 17 1013.6 1013.5 0.0
24/06:30pm 24.4 22.5 20.1 77 2.8 ESE 30 33 16 18 1013.4 1013.3 0.0
24/06:00pm 24.5 22.9 20.0 76 2.9 ESE 28 32 15 17 1013.3 1013.2 0.0
24/05:30pm 24.7 23.0 19.9 74 3.1 ESE 28 32 15 17 1013.0 1012.9 0.0
24/05:00pm 25.1 23.4 19.8 72 3.4 ESE 28 32 15 17 1013.0 1012.9 0.0
24/04:30pm 25.6 24.0 20.1 71 3.6 ESE 28 33 15 18 1012.8 1012.7 0.0
24/04:00pm 25.9 24.3 20.1 70 3.8 ESE 28 33 15 18 1012.7 1012.6 0.0
24/03:30pm 26.3 25.1 20.0 68 4.1 ESE 26 32 14 17 1012.9 1012.8 0.0
24/03:00pm 26.4 24.9 20.3 69 4.0 ESE 28 33 15 18 1013.0 1012.9 0.0
24/02:30pm 27.0 25.5 20.3 66 4.4 ESE 28 30 15 16 1013.3 1013.2 0.0
24/02:00pm 27.2 25.6 20.0 64 4.7 ESE 28 32 15 17 1013.6 1013.5 0.0
24/01:30pm 27.8 26.3 20.3 63 4.9 ESE 28 32 15 17 1013.9 1013.8 0.0
24/01:00pm 27.6 26.0 20.1 63 4.9 ESE 28 32 15 17 1014.3 1014.2 0.0
24/12:30pm 27.0 25.4 20.1 66 4.5 ESE 28 32 15 17 1014.5 1014.4 0.0
24/12:00pm 27.5 25.8 19.8 63 5.0 ESE 28 32 15 17 1014.8 1014.7 0.0
24/11:30am 27.4 25.9 20.2 65 4.7 ESE 28 33 15 18 1015.3 1015.2 0.0
24/11:00am 27.4 25.4 20.0 64 4.8 ESE 30 35 16 19 1015.5 1015.4 0.0
24/10:30am 27.4 25.4 20.0 64 4.8 ESE 30 35 16 19 1015.8 1015.7 0.0
24/10:00am 27.1 25.1 20.0 65 4.6 ESE 30 35 16 19 1015.9 1015.8 0.0
24/09:30am 26.5 24.1 19.9 67 4.3 ESE 32 35 17 19 1016.0 1015.9 0.0
24/09:00am 26.0 23.9 19.8 68 4.0 ESE 30 37 16 20 1016.0 1015.9 0.0
24/08:30am 25.6 23.7 20.1 71 3.6 ESE 30 35 16 19 1016.0 1015.9 0.0
24/08:00am 25.7 23.6 19.7 69 3.9 ESE 30 35 16 19 1015.9 1015.8 0.0
24/07:30am 25.1 22.6 19.7 72 3.5 ESE 32 37 17 20 1015.6 1015.5 0.0
24/07:00am 24.9 23.3 20.1 74 3.1 ESE 28 32 15 17 1015.3 1015.2 0.0
24/06:30am 24.3 22.6 19.8 76 2.9 ESE 28 33 15 18 1014.9 1014.8 0.0
24/06:00am 24.0 22.8 20.0 78 2.6 ESE 26 32 14 17 1014.7 1014.6 0.0
24/05:30am 23.9 22.5 19.7 77 2.7 ESE 26 32 14 17 1014.5 1014.4 0.0
24/05:00am 23.8 21.9 19.4 76 2.8 ESE 28 33 15 18 1014.1 1014.0 0.0
24/04:30am 23.7 21.7 19.1 75 2.9 ESE 28 32 15 17 1013.9 1013.8 0.0
24/04:00am 23.8 21.9 19.3 76 2.9 ESE 28 32 15 17 1014.0 1013.9 0.0
24/03:30am 23.8 21.5 19.3 76 2.9 ESE 30 33 16 18 1014.0 1013.9 0.0
24/03:00am 23.8 21.5 19.4 76 2.8 ESE 30 33 16 18 1014.0 1013.9 0.0
24/02:30am 23.7 21.5 19.5 77 2.7 ESE 30 35 16 19 1014.1 1014.0 0.0
24/02:00am 23.9 21.9 19.9 78 2.6 ESE 30 35 16 19 1014.2 1014.1 0.0
24/01:30am 24.0 22.0 20.0 78 2.6 ESE 30 35 16 19 1014.5 1014.4 0.0
24/01:00am 24.4 22.4 20.7 80 2.4 ESE 32 37 17 20 1014.9 1014.8 0.0
24/12:30am 24.2 21.8 19.9 77 2.8 ESE 32 35 17 19 1015.1 1015.0 0.0
24/12:00am 24.2 21.8 20.0 77 2.7 ESE 32 37 17 20 1015.3 1015.2 0.0
 
Date/Time
EST
Temp
°C
App
Temp
°C
Dew
Point
°C
Rel
Hum
%
Delta-T
°C
Wind Press
QNH
hPa
Press
MSL
hPa
Rain since
9am
mm
Dir  Spd
km/h
Gust
km/h
Spd
kts
Gust
kts
23/11:30pm 24.4 22.1 20.2 77 2.7 E 32 35 17 19 1015.5 1015.4 0.0
23/11:00pm 24.3 22.2 20.5 79 2.5 ESE 32 35 17 19 1015.6 1015.5 0.0
23/10:30pm 24.4 22.1 20.2 77 2.7 ESE 32 35 17 19 1015.7 1015.6 0.0
23/10:00pm 24.6 22.6 20.8 79 2.5 ESE 32 35 17 19 1015.7 1015.6 0.0
23/09:30pm 24.4 22.1 20.1 77 2.8 ESE 32 37 17 20 1015.7 1015.6 0.0
23/09:00pm 24.4 22.7 20.6 79 2.5 ESE 30 35 16 19 1015.6 1015.5 0.0
23/08:30pm 24.6 22.5 20.6 78 2.6 E 32 35 17 19 1015.4 1015.3 0.0
23/08:00pm 24.4 22.2 20.4 78 2.6 ESE 32 35 17 19 1015.0 1014.9 0.0
23/07:30pm 24.5 22.1 20.3 77 2.7 ESE 33 37 18 20 1014.6 1014.5 0.0
23/07:00pm 24.6 22.4 20.8 79 2.5 ESE 33 37 18 20 1014.3 1014.2 0.0
23/06:30pm 24.6 22.5 20.6 78 2.6 ESE 32 35 17 19 1014.2 1014.1 0.0
23/06:00pm 24.8 22.8 20.7 78 2.7 ESE 32 35 17 19 1014.2 1014.1 0.0
23/05:30pm 25.0 23.0 20.7 77 2.8 ESE 32 35 17 19 1014.1 1014.0 0.0
23/05:00pm 25.5 23.7 20.4 73 3.3 ESE 30 35 16 19 1013.9 1013.8 0.0
23/04:30pm 25.9 24.1 20.4 71 3.6 ESE 30 35 16 19 1013.9 1013.8 0.0
23/04:00pm 26.4 24.6 20.4 69 3.9 ESE 30 33 16 18 1014.0 1013.9 0.0
23/03:30pm 26.5 24.4 19.7 66 4.4 ESE 30 33 16 18 1014.1 1014.0 0.0
23/03:00pm 27.1 26.1 20.4 66 4.4 ESE 26 30 14 16 1014.2 1014.1 0.0
23/02:30pm 27.2 26.2 20.5 67 4.4 ESE 26 30 14 16 1014.3 1014.2 0.0
23/02:00pm 27.4 26.3 20.2 65 4.7 ESE 26 30 14 16 1014.5 1014.4 0.0

Other Formats:

Comma delimited format used in spreadsheet applications
http://www.bom.gov.au/fwo/IDQ60801/IDQ60801.94299.axf

JavaScript Object Notation format (JSON) in row-major order
http://www.bom.gov.au/fwo/IDQ60801/IDQ60801.94299.json